Terminal Aerodrome Forecast
Issued by NWS Sioux Falls, SD

Home | Current Version | Previous Version | Graphics & Text | Print | Product List | Glossary On
Versions: 1 2 3 4 5 6 7 8 9 10 11 12 13 14 15 16 17 18 19 20 21 22 23 24 25 26 27 28 29
000
FTUS43 KFSD 291028 AAC
TAFSUX
TAF AMD
KSUX 291028Z 2910/3006 02005KT P6SM SCT010 OVC022
      TEMPO 2911/2914 5SM BR BKN010
     FM291400 04008KT P6SM OVC015
     FM292300 06010KT P6SM OVC040=

USA.gov is the U.S. government's official web portal to all federal, state and local government web resources and services.